sensor_id;sensor_type;location;lat;lon;timestamp;temperature;humidity
10051;DHT22;5065;46.942;7.432;2023-09-18T00:01:21;21.70;99.90
10051;DHT22;5065;46.942;7.432;2023-09-18T00:03:48;21.50;99.90
10051;DHT22;5065;46.942;7.432;2023-09-18T00:06:15;21.50;99.90
10051;DHT22;5065;46.942;7.432;2023-09-18T00:08:42;21.50;99.90
10051;DHT22;5065;46.942;7.432;2023-09-18T00:11:09;21.40;99.90
10051;DHT22;5065;46.942;7.432;2023-09-18T00:13:39;21.30;99.90
10051;DHT22;5065;46.942;7.432;2023-09-18T00:16:06;21.20;99.90
10051;DHT22;5065;46.942;7.432;2023-09-18T00:18:33;21.30;99.90
10051;DHT22;5065;46.942;7.432;2023-09-18T00:21:00;21.20;99.90
10051;DHT22;5065;46.942;7.432;2023-09-18T00:23:28;21.30;99.90
10051;DHT22;5065;46.942;7.432;2023-09-18T00:25:55;21.30;99.90
10051;DHT22;5065;46.942;7.432;2023-09-18T00:28:22;21.30;99.90
10051;DHT22;5065;46.942;7.432;2023-09-18T00:30:51;21.30;99.90
10051;DHT22;5065;46.942;7.432;2023-09-18T00:33:20;21.30;99.90
10051;DHT22;5065;46.942;7.432;2023-09-18T00:35:47;21.30;99.90
10051;DHT22;5065;46.942;7.432;2023-09-18T00:38:15;21.30;99.90
10051;DHT22;5065;46.942;7.432;2023-09-18T00:40:42;21.30;99.90
10051;DHT22;5065;46.942;7.432;2023-09-18T00:43:10;21.30;99.90
10051;DHT22;5065;46.942;7.432;2023-09-18T00:45:40;21.20;99.90
10051;DHT22;5065;46.942;7.432;2023-09-18T00:48:10;21.20;99.90
10051;DHT22;5065;46.942;7.432;2023-09-18T00:50:37;21.20;99.90
10051;DHT22;5065;46.942;7.432;2023-09-18T00:53:07;21.20;99.90
10051;DHT22;5065;46.942;7.432;2023-09-18T00:55:37;21.20;99.90
10051;DHT22;5065;46.942;7.432;2023-09-18T00:58:06;21.20;99.90
10051;DHT22;5065;46.942;7.432;2023-09-18T01:00:34;21.20;99.90
10051;DHT22;5065;46.942;7.432;2023-09-18T01:03:01;21.30;99.90
10051;DHT22;5065;46.942;7.432;2023-09-18T01:05:31;21.30;99.90
10051;DHT22;5065;46.942;7.432;2023-09-18T01:07:59;21.20;99.90
10051;DHT22;5065;46.942;7.432;2023-09-18T01:10:32;21.30;99.90
10051;DHT22;5065;46.942;7.432;2023-09-18T01:13:04;21.30;99.90
10051;DHT22;5065;46.942;7.432;2023-09-18T01:15:43;21.20;99.90
10051;DHT22;5065;46.942;7.432;2023-09-18T01:18:11;21.20;99.90
10051;DHT22;5065;46.942;7.432;2023-09-18T01:20:40;21.20;99.90
10051;DHT22;5065;46.942;7.432;2023-09-18T01:23:09;21.10;99.90
10051;DHT22;5065;46.942;7.432;2023-09-18T01:25:37;21.10;99.90
10051;DHT22;5065;46.942;7.432;2023-09-18T01:28:04;21.20;99.90
10051;DHT22;5065;46.942;7.432;2023-09-18T01:30:31;21.20;99.90
10051;DHT22;5065;46.942;7.432;2023-09-18T01:33:01;21.20;99.90
10051;DHT22;5065;46.942;7.432;2023-09-18T01:35:30;21.20;99.90
10051;DHT22;5065;46.942;7.432;2023-09-18T01:37:59;21.20;99.90
10051;DHT22;5065;46.942;7.432;2023-09-18T01:40:28;21.20;99.90
10051;DHT22;5065;46.942;7.432;2023-09-18T01:42:55;21.20;99.90
10051;DHT22;5065;46.942;7.432;2023-09-18T01:45:22;21.20;99.90
10051;DHT22;5065;46.942;7.432;2023-09-18T01:47:51;21.20;99.90
10051;DHT22;5065;46.942;7.432;2023-09-18T01:50:18;21.20;99.90
10051;DHT22;5065;46.942;7.432;2023-09-18T01:52:45;21.20;99.90
10051;DHT22;5065;46.942;7.432;2023-09-18T01:55:12;21.20;99.90
10051;DHT22;5065;46.942;7.432;2023-09-18T01:57:41;21.30;99.90
10051;DHT22;5065;46.942;7.432;2023-09-18T02:00:09;21.30;99.90
10051;DHT22;5065;46.942;7.432;2023-09-18T02:02:37;21.30;99.90
10051;DHT22;5065;46.942;7.432;2023-09-18T02:05:05;21.30;99.90
10051;DHT22;5065;46.942;7.432;2023-09-18T02:07:32;21.30;99.90
10051;DHT22;5065;46.942;7.432;2023-09-18T02:10:00;21.30;99.90
10051;DHT22;5065;46.942;7.432;2023-09-18T02:12:27;21.30;99.90
10051;DHT22;5065;46.942;7.432;2023-09-18T02:14:55;21.30;99.90
10051;DHT22;5065;46.942;7.432;2023-09-18T02:17:24;21.30;99.90
10051;DHT22;5065;46.942;7.432;2023-09-18T02:19:51;21.40;99.90
10051;DHT22;5065;46.942;7.432;2023-09-18T02:22:18;21.40;99.90
10051;DHT22;5065;46.942;7.432;2023-09-18T02:24:45;21.40;99.90
10051;DHT22;5065;46.942;7.432;2023-09-18T02:27:13;21.40;99.90
10051;DHT22;5065;46.942;7.432;2023-09-18T02:29:40;21.40;99.90
10051;DHT22;5065;46.942;7.432;2023-09-18T02:32:08;21.40;99.90
10051;DHT22;5065;46.942;7.432;2023-09-18T02:34:35;21.40;99.90
10051;DHT22;5065;46.942;7.432;2023-09-18T02:37:03;21.40;99.90
10051;DHT22;5065;46.942;7.432;2023-09-18T02:39:30;21.40;99.90
10051;DHT22;5065;46.942;7.432;2023-09-18T02:41:57;21.40;99.90
10051;DHT22;5065;46.942;7.432;2023-09-18T02:44:24;21.40;99.90
10051;DHT22;5065;46.942;7.432;2023-09-18T02:46:51;21.40;99.90
10051;DHT22;5065;46.942;7.432;2023-09-18T02:49:20;21.40;99.90
10051;DHT22;5065;46.942;7.432;2023-09-18T02:51:47;21.40;99.90
10051;DHT22;5065;46.942;7.432;2023-09-18T02:54:15;21.40;99.90
10051;DHT22;5065;46.942;7.432;2023-09-18T02:56:42;21.40;99.90
10051;DHT22;5065;46.942;7.432;2023-09-18T02:59:10;21.40;99.90
10051;DHT22;5065;46.942;7.432;2023-09-18T03:01:37;21.30;99.90
10051;DHT22;5065;46.942;7.432;2023-09-18T03:04:05;21.30;99.90
10051;DHT22;5065;46.942;7.432;2023-09-18T03:06:34;21.30;99.90
10051;DHT22;5065;46.942;7.432;2023-09-18T03:09:01;21.30;99.90
10051;DHT22;5065;46.942;7.432;2023-09-18T03:11:28;21.20;99.90
10051;DHT22;5065;46.942;7.432;2023-09-18T03:13:55;21.20;99.90
10051;DHT22;5065;46.942;7.432;2023-09-18T03:16:22;21.20;99.90
10051;DHT22;5065;46.942;7.432;2023-09-18T03:18:50;21.10;99.90
10051;DHT22;5065;46.942;7.432;2023-09-18T03:21:17;21.10;99.90
10051;DHT22;5065;46.942;7.432;2023-09-18T03:23:45;21.10;99.90
10051;DHT22;5065;46.942;7.432;2023-09-18T03:26:15;21.10;99.90
10051;DHT22;5065;46.942;7.432;2023-09-18T03:28:42;21.10;99.90
10051;DHT22;5065;46.942;7.432;2023-09-18T03:31:10;21.10;99.90
10051;DHT22;5065;46.942;7.432;2023-09-18T03:33:36;21.00;99.90
10051;DHT22;5065;46.942;7.432;2023-09-18T03:36:03;20.90;99.90
10051;DHT22;5065;46.942;7.432;2023-09-18T03:38:30;21.00;99.90
10051;DHT22;5065;46.942;7.432;2023-09-18T03:41:01;21.00;99.90
10051;DHT22;5065;46.942;7.432;2023-09-18T03:43:28;21.00;99.90
10051;DHT22;5065;46.942;7.432;2023-09-18T03:46:02;21.00;99.90
10051;DHT22;5065;46.942;7.432;2023-09-18T03:48:29;21.00;99.90
10051;DHT22;5065;46.942;7.432;2023-09-18T03:51:01;20.90;99.90
10051;DHT22;5065;46.942;7.432;2023-09-18T03:53:28;20.90;99.90
10051;DHT22;5065;46.942;7.432;2023-09-18T03:55:56;20.90;99.90
10051;DHT22;5065;46.942;7.432;2023-09-18T03:58:24;20.90;99.90
10051;DHT22;5065;46.942;7.432;2023-09-18T04:00:51;21.00;99.90
10051;DHT22;5065;46.942;7.432;2023-09-18T04:03:18;20.90;99.90
10051;DHT22;5065;46.942;7.432;2023-09-18T04:05:45;20.90;99.90
10051;DHT22;5065;46.942;7.432;2023-09-18T04:08:13;20.90;99.90
10051;DHT22;5065;46.942;7.432;2023-09-18T04:10:40;21.00;99.90
10051;DHT22;5065;46.942;7.432;2023-09-18T04:13:10;20.90;99.90
10051;DHT22;5065;46.942;7.432;2023-09-18T04:15:42;20.90;99.90
10051;DHT22;5065;46.942;7.432;2023-09-18T04:18:09;20.90;99.90
10051;DHT22;5065;46.942;7.432;2023-09-18T04:20:36;20.90;99.90
10051;DHT22;5065;46.942;7.432;2023-09-18T04:23:20;20.90;99.90
10051;DHT22;5065;46.942;7.432;2023-09-18T04:25:48;21.00;99.90
10051;DHT22;5065;46.942;7.432;2023-09-18T04:28:16;21.00;99.90
10051;DHT22;5065;46.942;7.432;2023-09-18T04:30:45;21.00;99.90
10051;DHT22;5065;46.942;7.432;2023-09-18T04:33:13;21.00;99.90
10051;DHT22;5065;46.942;7.432;2023-09-18T04:35:40;21.00;99.90
10051;DHT22;5065;46.942;7.432;2023-09-18T04:38:08;21.00;99.90
10051;DHT22;5065;46.942;7.432;2023-09-18T04:40:36;21.00;99.90
10051;DHT22;5065;46.942;7.432;2023-09-18T04:43:03;21.00;99.90
10051;DHT22;5065;46.942;7.432;2023-09-18T04:45:32;20.90;99.90
10051;DHT22;5065;46.942;7.432;2023-09-18T04:48:00;20.90;99.90
10051;DHT22;5065;46.942;7.432;2023-09-18T04:50:28;20.90;99.90
10051;DHT22;5065;46.942;7.432;2023-09-18T04:52:56;20.90;99.90
10051;DHT22;5065;46.942;7.432;2023-09-18T04:55:23;20.90;99.90
10051;DHT22;5065;46.942;7.432;2023-09-18T04:57:51;20.90;99.90
10051;DHT22;5065;46.942;7.432;2023-09-18T05:00:18;20.90;99.90
10051;DHT22;5065;46.942;7.432;2023-09-18T05:02:49;20.90;99.90
10051;DHT22;5065;46.942;7.432;2023-09-18T05:05:18;20.90;99.90
10051;DHT22;5065;46.942;7.432;2023-09-18T05:07:46;20.90;99.90
10051;DHT22;5065;46.942;7.432;2023-09-18T05:10:15;20.90;99.90
10051;DHT22;5065;46.942;7.432;2023-09-18T05:12:42;21.00;99.90
10051;DHT22;5065;46.942;7.432;2023-09-18T05:15:09;21.00;99.90
10051;DHT22;5065;46.942;7.432;2023-09-18T05:17:42;21.00;99.90
10051;DHT22;5065;46.942;7.432;2023-09-18T05:20:11;21.00;99.90
10051;DHT22;5065;46.942;7.432;2023-09-18T05:22:43;21.00;99.90
10051;DHT22;5065;46.942;7.432;2023-09-18T05:25:11;21.00;99.90
10051;DHT22;5065;46.942;7.432;2023-09-18T05:27:38;21.00;99.90
10051;DHT22;5065;46.942;7.432;2023-09-18T05:30:11;20.90;99.90
10051;DHT22;5065;46.942;7.432;2023-09-18T05:32:41;21.00;99.90
10051;DHT22;5065;46.942;7.432;2023-09-18T05:35:09;21.00;99.90
10051;DHT22;5065;46.942;7.432;2023-09-18T05:37:38;21.00;99.90
10051;DHT22;5065;46.942;7.432;2023-09-18T05:40:09;20.90;99.90
10051;DHT22;5065;46.942;7.432;2023-09-18T05:42:36;20.90;99.90
10051;DHT22;5065;46.942;7.432;2023-09-18T05:45:04;20.90;99.90
10051;DHT22;5065;46.942;7.432;2023-09-18T05:47:33;20.90;99.90
10051;DHT22;5065;46.942;7.432;2023-09-18T05:50:01;20.80;99.90
10051;DHT22;5065;46.942;7.432;2023-09-18T05:52:30;20.70;99.90
10051;DHT22;5065;46.942;7.432;2023-09-18T05:54:57;20.70;99.90
10051;DHT22;5065;46.942;7.432;2023-09-18T05:57:26;20.70;99.90
10051;DHT22;5065;46.942;7.432;2023-09-18T05:59:54;20.70;99.90
10051;DHT22;5065;46.942;7.432;2023-09-18T06:02:21;20.60;99.90
10051;DHT22;5065;46.942;7.432;2023-09-18T06:04:49;20.60;99.90
10051;DHT22;5065;46.942;7.432;2023-09-18T06:07:16;20.60;99.90
10051;DHT22;5065;46.942;7.432;2023-09-18T06:09:43;20.60;99.90
10051;DHT22;5065;46.942;7.432;2023-09-18T06:12:10;20.60;99.90
10051;DHT22;5065;46.942;7.432;2023-09-18T06:14:39;20.50;99.90
10051;DHT22;5065;46.942;7.432;2023-09-18T06:17:08;20.60;99.90
10051;DHT22;5065;46.942;7.432;2023-09-18T06:19:35;20.60;99.90
10051;DHT22;5065;46.942;7.432;2023-09-18T06:22:02;20.50;99.90
10051;DHT22;5065;46.942;7.432;2023-09-18T06:24:30;20.50;99.90
10051;DHT22;5065;46.942;7.432;2023-09-18T06:26:57;20.50;99.90
10051;DHT22;5065;46.942;7.432;2023-09-18T06:29:25;20.50;99.90
10051;DHT22;5065;46.942;7.432;2023-09-18T06:31:56;20.40;99.90
10051;DHT22;5065;46.942;7.432;2023-09-18T06:34:24;20.40;99.90
10051;DHT22;5065;46.942;7.432;2023-09-18T06:36:52;20.40;99.90
10051;DHT22;5065;46.942;7.432;2023-09-18T06:39:19;20.30;99.90
10051;DHT22;5065;46.942;7.432;2023-09-18T06:41:48;20.30;99.90
10051;DHT22;5065;46.942;7.432;2023-09-18T06:44:15;20.40;99.90
10051;DHT22;5065;46.942;7.432;2023-09-18T06:46:42;20.30;99.90
10051;DHT22;5065;46.942;7.432;2023-09-18T06:49:10;20.30;99.90
10051;DHT22;5065;46.942;7.432;2023-09-18T06:51:37;20.30;99.90
10051;DHT22;5065;46.942;7.432;2023-09-18T06:54:05;20.30;99.90
10051;DHT22;5065;46.942;7.432;2023-09-18T06:56:32;20.30;99.90
10051;DHT22;5065;46.942;7.432;2023-09-18T06:59:00;20.20;99.90
10051;DHT22;5065;46.942;7.432;2023-09-18T07:01:27;20.20;99.90
10051;DHT22;5065;46.942;7.432;2023-09-18T07:03:54;20.20;99.90
10051;DHT22;5065;46.942;7.432;2023-09-18T07:06:23;20.20;99.90
10051;DHT22;5065;46.942;7.432;2023-09-18T07:08:50;20.20;99.90
10051;DHT22;5065;46.942;7.432;2023-09-18T07:11:18;20.10;99.90
10051;DHT22;5065;46.942;7.432;2023-09-18T07:13:45;20.10;99.90
10051;DHT22;5065;46.942;7.432;2023-09-18T07:16:14;20.10;99.90
10051;DHT22;5065;46.942;7.432;2023-09-18T07:18:41;20.10;99.90
10051;DHT22;5065;46.942;7.432;2023-09-18T07:21:09;20.10;99.90
10051;DHT22;5065;46.942;7.432;2023-09-18T07:23:39;20.10;99.90
10051;DHT22;5065;46.942;7.432;2023-09-18T07:26:06;20.00;99.90
10051;DHT22;5065;46.942;7.432;2023-09-18T07:28:34;20.00;99.90
10051;DHT22;5065;46.942;7.432;2023-09-18T07:31:05;20.00;99.90
10051;DHT22;5065;46.942;7.432;2023-09-18T07:33:32;20.00;99.90
10051;DHT22;5065;46.942;7.432;2023-09-18T07:35:59;20.00;99.90
10051;DHT22;5065;46.942;7.432;2023-09-18T07:38:26;20.00;99.90
10051;DHT22;5065;46.942;7.432;2023-09-18T07:40:55;19.90;99.90
10051;DHT22;5065;46.942;7.432;2023-09-18T07:43:24;19.90;99.90
10051;DHT22;5065;46.942;7.432;2023-09-18T07:45:52;19.90;99.90
10051;DHT22;5065;46.942;7.432;2023-09-18T07:48:22;19.90;99.90
10051;DHT22;5065;46.942;7.432;2023-09-18T07:50:49;19.90;99.90
10051;DHT22;5065;46.942;7.432;2023-09-18T07:53:15;20.00;99.90
10051;DHT22;5065;46.942;7.432;2023-09-18T07:55:43;19.90;99.90
10051;DHT22;5065;46.942;7.432;2023-09-18T07:58:11;19.90;99.90
10051;DHT22;5065;46.942;7.432;2023-09-18T08:00:39;19.90;99.90
10051;DHT22;5065;46.942;7.432;2023-09-18T08:03:07;19.90;99.90
10051;DHT22;5065;46.942;7.432;2023-09-18T08:05:34;19.90;99.90
10051;DHT22;5065;46.942;7.432;2023-09-18T08:08:01;19.90;99.90
10051;DHT22;5065;46.942;7.432;2023-09-18T08:10:31;20.00;99.90
10051;DHT22;5065;46.942;7.432;2023-09-18T08:12:58;20.00;99.90
10051;DHT22;5065;46.942;7.432;2023-09-18T08:15:27;19.90;99.90
10051;DHT22;5065;46.942;7.432;2023-09-18T08:17:54;19.90;99.90
10051;DHT22;5065;46.942;7.432;2023-09-18T08:20:22;19.90;99.90
10051;DHT22;5065;46.942;7.432;2023-09-18T08:22:49;19.80;99.90
10051;DHT22;5065;46.942;7.432;2023-09-18T08:25:16;19.90;99.90
10051;DHT22;5065;46.942;7.432;2023-09-18T08:27:43;19.90;99.90
10051;DHT22;5065;46.942;7.432;2023-09-18T08:30:11;19.90;99.90
10051;DHT22;5065;46.942;7.432;2023-09-18T08:32:41;19.80;99.90
10051;DHT22;5065;46.942;7.432;2023-09-18T08:35:09;19.80;99.90
10051;DHT22;5065;46.942;7.432;2023-09-18T08:37:36;19.80;99.90
10051;DHT22;5065;46.942;7.432;2023-09-18T08:40:05;19.80;99.90
10051;DHT22;5065;46.942;7.432;2023-09-18T08:42:36;19.80;99.90
10051;DHT22;5065;46.942;7.432;2023-09-18T08:45:08;19.80;99.90
10051;DHT22;5065;46.942;7.432;2023-09-18T08:47:38;19.80;99.90
10051;DHT22;5065;46.942;7.432;2023-09-18T08:50:08;19.70;99.90
10051;DHT22;5065;46.942;7.432;2023-09-18T08:52:36;19.80;99.90
10051;DHT22;5065;46.942;7.432;2023-09-18T08:55:04;19.80;99.90
10051;DHT22;5065;46.942;7.432;2023-09-18T08:57:32;19.80;99.90
10051;DHT22;5065;46.942;7.432;2023-09-18T09:00:01;19.80;99.90
10051;DHT22;5065;46.942;7.432;2023-09-18T09:02:33;19.80;99.90
10051;DHT22;5065;46.942;7.432;2023-09-18T09:05:00;19.80;99.90
10051;DHT22;5065;46.942;7.432;2023-09-18T09:07:28;19.80;99.90
10051;DHT22;5065;46.942;7.432;2023-09-18T09:09:56;19.80;99.90
10051;DHT22;5065;46.942;7.432;2023-09-18T09:12:48;19.80;99.90
10051;DHT22;5065;46.942;7.432;2023-09-18T09:15:17;19.80;99.90
10051;DHT22;5065;46.942;7.432;2023-09-18T09:17:46;19.70;99.90
10051;DHT22;5065;46.942;7.432;2023-09-18T09:20:15;19.70;99.90
10051;DHT22;5065;46.942;7.432;2023-09-18T09:22:46;19.70;99.90
10051;DHT22;5065;46.942;7.432;2023-09-18T09:25:26;19.60;99.90
10051;DHT22;5065;46.942;7.432;2023-09-18T09:27:54;19.60;99.90
10051;DHT22;5065;46.942;7.432;2023-09-18T09:30:23;19.60;99.90
10051;DHT22;5065;46.942;7.432;2023-09-18T09:32:52;19.70;99.90
10051;DHT22;5065;46.942;7.432;2023-09-18T09:35:23;19.70;99.90
10051;DHT22;5065;46.942;7.432;2023-09-18T09:37:57;19.70;99.90
10051;DHT22;5065;46.942;7.432;2023-09-18T09:40:28;19.70;99.90
10051;DHT22;5065;46.942;7.432;2023-09-18T09:42:57;19.80;99.90
10051;DHT22;5065;46.942;7.432;2023-09-18T09:45:31;19.80;99.90
10051;DHT22;5065;46.942;7.432;2023-09-18T09:48:03;19.80;99.90
10051;DHT22;5065;46.942;7.432;2023-09-18T09:50:31;19.70;99.90
10051;DHT22;5065;46.942;7.432;2023-09-18T09:53:00;19.70;99.90
10051;DHT22;5065;46.942;7.432;2023-09-18T09:55:30;19.70;99.90
10051;DHT22;5065;46.942;7.432;2023-09-18T09:57:58;19.70;99.90
10051;DHT22;5065;46.942;7.432;2023-09-18T10:00:32;19.70;99.90
10051;DHT22;5065;46.942;7.432;2023-09-18T10:03:04;19.60;99.90
10051;DHT22;5065;46.942;7.432;2023-09-18T10:05:33;19.50;99.90
10051;DHT22;5065;46.942;7.432;2023-09-18T10:08:06;19.50;99.90
10051;DHT22;5065;46.942;7.432;2023-09-18T10:10:36;19.50;99.90
10051;DHT22;5065;46.942;7.432;2023-09-18T10:13:09;19.50;99.90
10051;DHT22;5065;46.942;7.432;2023-09-18T10:15:38;19.50;99.90
10051;DHT22;5065;46.942;7.432;2023-09-18T10:18:17;19.50;99.90
10051;DHT22;5065;46.942;7.432;2023-09-18T10:20:46;19.50;99.90
10051;DHT22;5065;46.942;7.432;2023-09-18T10:23:31;19.50;99.90
10051;DHT22;5065;46.942;7.432;2023-09-18T10:26:02;19.50;99.90
10051;DHT22;5065;46.942;7.432;2023-09-18T10:28:59;19.40;99.90
10051;DHT22;5065;46.942;7.432;2023-09-18T10:31:56;19.30;99.90
10051;DHT22;5065;46.942;7.432;2023-09-18T10:34:24;19.40;99.90
10051;DHT22;5065;46.942;7.432;2023-09-18T10:36:53;19.30;99.90
10051;DHT22;5065;46.942;7.432;2023-09-18T10:39:24;19.40;99.90
10051;DHT22;5065;46.942;7.432;2023-09-18T10:41:54;19.40;99.90
10051;DHT22;5065;46.942;7.432;2023-09-18T10:44:21;19.40;99.90
10051;DHT22;5065;46.942;7.432;2023-09-18T10:46:50;19.40;99.90
10051;DHT22;5065;46.942;7.432;2023-09-18T10:49:19;19.40;99.90
10051;DHT22;5065;46.942;7.432;2023-09-18T10:51:47;19.40;99.90
10051;DHT22;5065;46.942;7.432;2023-09-18T10:54:16;19.40;99.90
10051;DHT22;5065;46.942;7.432;2023-09-18T10:56:45;19.50;99.90
10051;DHT22;5065;46.942;7.432;2023-09-18T10:59:14;19.50;99.90
10051;DHT22;5065;46.942;7.432;2023-09-18T11:01:42;19.60;99.90
10051;DHT22;5065;46.942;7.432;2023-09-18T11:04:10;19.60;99.90
10051;DHT22;5065;46.942;7.432;2023-09-18T11:07:01;19.70;99.90
10051;DHT22;5065;46.942;7.432;2023-09-18T11:09:31;19.70;99.90
10051;DHT22;5065;46.942;7.432;2023-09-18T11:12:05;19.80;99.90
10051;DHT22;5065;46.942;7.432;2023-09-18T11:14:41;19.80;99.90
10051;DHT22;5065;46.942;7.432;2023-09-18T11:19:55;19.90;99.90
10051;DHT22;5065;46.942;7.432;2023-09-18T11:22:22;19.90;99.90
10051;DHT22;5065;46.942;7.432;2023-09-18T11:24:50;20.00;99.90
10051;DHT22;5065;46.942;7.432;2023-09-18T11:27:22;20.00;99.90
10051;DHT22;5065;46.942;7.432;2023-09-18T11:29:51;20.20;99.90
10051;DHT22;5065;46.942;7.432;2023-09-18T11:35:11;20.40;99.90
10051;DHT22;5065;46.942;7.432;2023-09-18T11:37:40;20.50;99.90
10051;DHT22;5065;46.942;7.432;2023-09-18T11:40:28;20.50;99.90
10051;DHT22;5065;46.942;7.432;2023-09-18T11:43:25;20.50;99.90
10051;DHT22;5065;46.942;7.432;2023-09-18T11:45:56;20.60;99.90
10051;DHT22;5065;46.942;7.432;2023-09-18T11:48:23;20.60;99.90
10051;DHT22;5065;46.942;7.432;2023-09-18T11:50:53;20.50;99.90
10051;DHT22;5065;46.942;7.432;2023-09-18T11:53:21;20.50;99.90
10051;DHT22;5065;46.942;7.432;2023-09-18T11:55:50;20.50;99.90
10051;DHT22;5065;46.942;7.432;2023-09-18T11:58:18;20.40;99.90
10051;DHT22;5065;46.942;7.432;2023-09-18T12:00:51;20.50;99.90
10051;DHT22;5065;46.942;7.432;2023-09-18T12:03:21;20.50;99.90
10051;DHT22;5065;46.942;7.432;2023-09-18T12:05:56;20.40;99.90
10051;DHT22;5065;46.942;7.432;2023-09-18T12:08:24;20.40;99.90
10051;DHT22;5065;46.942;7.432;2023-09-18T12:10:53;20.40;99.90
10051;DHT22;5065;46.942;7.432;2023-09-18T12:13:20;20.30;99.90
10051;DHT22;5065;46.942;7.432;2023-09-18T12:15:50;20.30;99.90
10051;DHT22;5065;46.942;7.432;2023-09-18T12:18:22;20.30;99.90
10051;DHT22;5065;46.942;7.432;2023-09-18T12:20:50;20.20;99.90
10051;DHT22;5065;46.942;7.432;2023-09-18T12:23:18;20.20;99.90
10051;DHT22;5065;46.942;7.432;2023-09-18T12:25:48;20.30;99.90
10051;DHT22;5065;46.942;7.432;2023-09-18T12:28:16;20.20;99.90
10051;DHT22;5065;46.942;7.432;2023-09-18T12:30:43;20.20;99.90
10051;DHT22;5065;46.942;7.432;2023-09-18T12:33:14;20.20;99.90
10051;DHT22;5065;46.942;7.432;2023-09-18T12:35:41;20.20;99.90
10051;DHT22;5065;46.942;7.432;2023-09-18T12:38:15;20.20;99.90
10051;DHT22;5065;46.942;7.432;2023-09-18T12:40:42;20.10;99.90
10051;DHT22;5065;46.942;7.432;2023-09-18T12:43:13;20.00;99.90
10051;DHT22;5065;46.942;7.432;2023-09-18T12:45:42;20.00;99.90
10051;DHT22;5065;46.942;7.432;2023-09-18T12:48:13;20.10;99.90
10051;DHT22;5065;46.942;7.432;2023-09-18T12:50:40;20.20;99.90
10051;DHT22;5065;46.942;7.432;2023-09-18T12:53:11;20.10;99.90
10051;DHT22;5065;46.942;7.432;2023-09-18T12:55:39;20.10;99.90
10051;DHT22;5065;46.942;7.432;2023-09-18T12:58:10;20.20;99.90
10051;DHT22;5065;46.942;7.432;2023-09-18T13:00:44;20.20;99.90
10051;DHT22;5065;46.942;7.432;2023-09-18T13:03:14;20.20;99.90
10051;DHT22;5065;46.942;7.432;2023-09-18T13:05:41;20.20;99.90
10051;DHT22;5065;46.942;7.432;2023-09-18T13:08:09;20.10;99.90
10051;DHT22;5065;46.942;7.432;2023-09-18T13:10:42;20.10;99.90
10051;DHT22;5065;46.942;7.432;2023-09-18T13:13:16;20.10;99.90
10051;DHT22;5065;46.942;7.432;2023-09-18T13:15:44;20.10;99.90
10051;DHT22;5065;46.942;7.432;2023-09-18T13:18:15;20.20;99.90
10051;DHT22;5065;46.942;7.432;2023-09-18T13:20:45;20.10;99.90
10051;DHT22;5065;46.942;7.432;2023-09-18T13:23:12;20.10;99.90
10051;DHT22;5065;46.942;7.432;2023-09-18T13:25:41;20.10;99.90
10051;DHT22;5065;46.942;7.432;2023-09-18T13:28:11;20.20;99.90
10051;DHT22;5065;46.942;7.432;2023-09-18T13:30:40;20.10;99.90
10051;DHT22;5065;46.942;7.432;2023-09-18T13:33:08;20.20;99.90
10051;DHT22;5065;46.942;7.432;2023-09-18T13:35:39;20.20;99.90
10051;DHT22;5065;46.942;7.432;2023-09-18T13:38:08;20.20;99.90
10051;DHT22;5065;46.942;7.432;2023-09-18T13:40:37;20.10;99.90
10051;DHT22;5065;46.942;7.432;2023-09-18T13:43:05;20.00;99.90
10051;DHT22;5065;46.942;7.432;2023-09-18T13:45:32;20.00;99.90
10051;DHT22;5065;46.942;7.432;2023-09-18T13:48:00;20.10;99.90
10051;DHT22;5065;46.942;7.432;2023-09-18T13:50:28;20.20;99.90
10051;DHT22;5065;46.942;7.432;2023-09-18T13:52:56;20.10;99.90
10051;DHT22;5065;46.942;7.432;2023-09-18T13:55:25;20.10;99.90
10051;DHT22;5065;46.942;7.432;2023-09-18T13:57:53;20.10;99.90
10051;DHT22;5065;46.942;7.432;2023-09-18T14:00:21;20.00;99.90
10051;DHT22;5065;46.942;7.432;2023-09-18T14:02:48;20.10;99.90
10051;DHT22;5065;46.942;7.432;2023-09-18T14:05:16;20.10;99.90
10051;DHT22;5065;46.942;7.432;2023-09-18T14:07:43;20.10;99.90
10051;DHT22;5065;46.942;7.432;2023-09-18T14:10:12;20.10;99.90
10051;DHT22;5065;46.942;7.432;2023-09-18T14:12:40;20.10;99.90
10051;DHT22;5065;46.942;7.432;2023-09-18T14:15:09;20.00;99.90
10051;DHT22;5065;46.942;7.432;2023-09-18T14:17:36;20.10;99.90
10051;DHT22;5065;46.942;7.432;2023-09-18T14:20:05;20.10;99.90
10051;DHT22;5065;46.942;7.432;2023-09-18T14:22:32;20.00;99.90
10051;DHT22;5065;46.942;7.432;2023-09-18T14:25:00;20.00;99.90
10051;DHT22;5065;46.942;7.432;2023-09-18T14:27:31;20.00;99.90
10051;DHT22;5065;46.942;7.432;2023-09-18T14:29:58;20.00;99.90
10051;DHT22;5065;46.942;7.432;2023-09-18T14:32:29;20.00;99.90
10051;DHT22;5065;46.942;7.432;2023-09-18T14:34:56;20.00;99.90
10051;DHT22;5065;46.942;7.432;2023-09-18T14:37:24;20.00;99.90
10051;DHT22;5065;46.942;7.432;2023-09-18T14:39:51;20.00;99.90
10051;DHT22;5065;46.942;7.432;2023-09-18T14:42:18;20.00;99.90
10051;DHT22;5065;46.942;7.432;2023-09-18T14:44:48;20.00;99.90
10051;DHT22;5065;46.942;7.432;2023-09-18T14:47:16;20.00;99.90
10051;DHT22;5065;46.942;7.432;2023-09-18T14:49:43;20.00;99.90
10051;DHT22;5065;46.942;7.432;2023-09-18T14:52:12;20.00;99.90
10051;DHT22;5065;46.942;7.432;2023-09-18T14:54:40;20.10;99.90
10051;DHT22;5065;46.942;7.432;2023-09-18T14:57:07;20.10;99.90
10051;DHT22;5065;46.942;7.432;2023-09-18T14:59:34;20.10;99.90
10051;DHT22;5065;46.942;7.432;2023-09-18T15:02:05;20.10;99.90
10051;DHT22;5065;46.942;7.432;2023-09-18T15:04:32;20.10;99.90
10051;DHT22;5065;46.942;7.432;2023-09-18T15:06:59;20.10;99.90
10051;DHT22;5065;46.942;7.432;2023-09-18T15:09:26;20.10;99.90
10051;DHT22;5065;46.942;7.432;2023-09-18T15:11:53;20.10;99.90
10051;DHT22;5065;46.942;7.432;2023-09-18T15:14:20;20.10;99.90
10051;DHT22;5065;46.942;7.432;2023-09-18T15:16:47;20.10;99.90
10051;DHT22;5065;46.942;7.432;2023-09-18T15:19:16;20.10;99.90
10051;DHT22;5065;46.942;7.432;2023-09-18T15:21:43;20.10;99.90
10051;DHT22;5065;46.942;7.432;2023-09-18T15:24:10;20.10;99.90
10051;DHT22;5065;46.942;7.432;2023-09-18T15:26:38;20.20;99.90
10051;DHT22;5065;46.942;7.432;2023-09-18T15:29:05;20.10;99.90
10051;DHT22;5065;46.942;7.432;2023-09-18T15:31:33;20.20;99.90
10051;DHT22;5065;46.942;7.432;2023-09-18T15:34:01;20.10;99.90
10051;DHT22;5065;46.942;7.432;2023-09-18T15:36:30;20.20;99.90
10051;DHT22;5065;46.942;7.432;2023-09-18T15:38:57;20.20;99.90
10051;DHT22;5065;46.942;7.432;2023-09-18T15:41:26;20.20;99.90
10051;DHT22;5065;46.942;7.432;2023-09-18T15:43:53;20.30;99.90
10051;DHT22;5065;46.942;7.432;2023-09-18T15:46:20;20.20;99.90
10051;DHT22;5065;46.942;7.432;2023-09-18T15:48:48;20.30;99.90
10051;DHT22;5065;46.942;7.432;2023-09-18T15:51:16;20.30;99.90
10051;DHT22;5065;46.942;7.432;2023-09-18T15:53:46;20.20;99.90
10051;DHT22;5065;46.942;7.432;2023-09-18T15:56:13;20.20;99.90
10051;DHT22;5065;46.942;7.432;2023-09-18T15:58:41;20.20;99.90
10051;DHT22;5065;46.942;7.432;2023-09-18T16:01:08;20.20;99.90